sensor_id;sensor_type;location;lat;lon;timestamp;P1;durP1;ratioP1;P2;durP2;ratioP2
49320;SDS011;35817;44.498;0.166;2022-12-05T00:03:51;22.73;;;18.95;;
49320;SDS011;35817;44.498;0.166;2022-12-05T00:06:18;26.50;;;20.02;;
49320;SDS011;35817;44.498;0.166;2022-12-05T00:08:45;28.63;;;21.45;;
49320;SDS011;35817;44.498;0.166;2022-12-05T00:11:12;30.13;;;22.58;;
49320;SDS011;35817;44.498;0.166;2022-12-05T00:13:40;29.02;;;21.77;;
49320;SDS011;35817;44.498;0.166;2022-12-05T00:16:11;28.80;;;22.10;;
49320;SDS011;35817;44.498;0.166;2022-12-05T00:18:39;30.13;;;22.40;;
49320;SDS011;35817;44.498;0.166;2022-12-05T00:21:09;31.25;;;23.35;;
49320;SDS011;35817;44.498;0.166;2022-12-05T00:23:37;29.48;;;22.70;;
49320;SDS011;35817;44.498;0.166;2022-12-05T00:26:03;30.20;;;23.00;;
49320;SDS011;35817;44.498;0.166;2022-12-05T00:28:30;32.03;;;24.38;;
49320;SDS011;35817;44.498;0.166;2022-12-05T00:31:00;36.17;;;26.65;;
49320;SDS011;35817;44.498;0.166;2022-12-05T00:33:27;41.38;;;26.02;;
49320;SDS011;35817;44.498;0.166;2022-12-05T00:35:53;37.50;;;24.33;;
49320;SDS011;35817;44.498;0.166;2022-12-05T00:38:19;31.75;;;24.20;;
49320;SDS011;35817;44.498;0.166;2022-12-05T00:40:44;35.65;;;24.35;;
49320;SDS011;35817;44.498;0.166;2022-12-05T00:43:10;32.75;;;22.65;;
49320;SDS011;35817;44.498;0.166;2022-12-05T00:45:36;31.63;;;22.10;;
49320;SDS011;35817;44.498;0.166;2022-12-05T00:48:01;32.63;;;22.08;;
49320;SDS011;35817;44.498;0.166;2022-12-05T00:50:27;30.05;;;22.23;;
49320;SDS011;35817;44.498;0.166;2022-12-05T00:52:53;30.95;;;22.52;;
49320;SDS011;35817;44.498;0.166;2022-12-05T00:55:18;30.67;;;21.77;;
49320;SDS011;35817;44.498;0.166;2022-12-05T00:57:44;31.20;;;22.55;;
49320;SDS011;35817;44.498;0.166;2022-12-05T01:00:10;35.95;;;24.27;;
49320;SDS011;35817;44.498;0.166;2022-12-05T01:02:36;34.17;;;24.00;;
49320;SDS011;35817;44.498;0.166;2022-12-05T01:05:01;29.88;;;22.33;;
49320;SDS011;35817;44.498;0.166;2022-12-05T01:07:27;31.38;;;23.52;;
49320;SDS011;35817;44.498;0.166;2022-12-05T01:09:53;29.17;;;22.23;;
49320;SDS011;35817;44.498;0.166;2022-12-05T01:12:19;32.22;;;21.73;;
49320;SDS011;35817;44.498;0.166;2022-12-05T01:14:44;27.45;;;20.98;;
49320;SDS011;35817;44.498;0.166;2022-12-05T01:17:10;29.30;;;22.15;;
49320;SDS011;35817;44.498;0.166;2022-12-05T01:19:36;28.92;;;20.48;;
49320;SDS011;35817;44.498;0.166;2022-12-05T01:22:01;29.08;;;21.08;;
49320;SDS011;35817;44.498;0.166;2022-12-05T01:24:27;25.42;;;19.08;;
49320;SDS011;35817;44.498;0.166;2022-12-05T01:26:54;30.15;;;18.77;;
49320;SDS011;35817;44.498;0.166;2022-12-05T01:29:21;26.73;;;19.83;;
49320;SDS011;35817;44.498;0.166;2022-12-05T01:31:48;31.73;;;22.67;;
49320;SDS011;35817;44.498;0.166;2022-12-05T01:34:15;25.00;;;21.17;;
49320;SDS011;35817;44.498;0.166;2022-12-05T01:36:43;29.83;;;20.00;;
49320;SDS011;35817;44.498;0.166;2022-12-05T01:39:10;27.42;;;19.85;;
49320;SDS011;35817;44.498;0.166;2022-12-05T01:41:37;26.75;;;20.60;;
49320;SDS011;35817;44.498;0.166;2022-12-05T01:46:38;25.90;;;17.90;;
49320;SDS011;35817;44.498;0.166;2022-12-05T01:49:14;29.67;;;19.65;;
49320;SDS011;35817;44.498;0.166;2022-12-05T01:52:06;33.33;;;20.88;;
49320;SDS011;35817;44.498;0.166;2022-12-05T01:54:40;23.92;;;19.23;;
49320;SDS011;35817;44.498;0.166;2022-12-05T01:57:09;24.77;;;20.90;;
49320;SDS011;35817;44.498;0.166;2022-12-05T01:59:38;28.77;;;21.92;;
49320;SDS011;35817;44.498;0.166;2022-12-05T02:02:08;28.55;;;20.85;;
49320;SDS011;35817;44.498;0.166;2022-12-05T02:04:36;31.60;;;22.27;;
49320;SDS011;35817;44.498;0.166;2022-12-05T02:07:08;30.52;;;21.48;;
49320;SDS011;35817;44.498;0.166;2022-12-05T02:09:34;26.58;;;21.65;;
49320;SDS011;35817;44.498;0.166;2022-12-05T02:12:00;29.45;;;21.55;;
49320;SDS011;35817;44.498;0.166;2022-12-05T02:14:31;29.35;;;23.15;;
49320;SDS011;35817;44.498;0.166;2022-12-05T02:24:52;24.85;;;20.88;;
49320;SDS011;35817;44.498;0.166;2022-12-05T02:27:30;31.13;;;22.85;;
49320;SDS011;35817;44.498;0.166;2022-12-05T02:43:42;30.38;;;21.58;;
49320;SDS011;35817;44.498;0.166;2022-12-05T02:46:22;25.92;;;19.55;;
49320;SDS011;35817;44.498;0.166;2022-12-05T02:48:53;31.42;;;24.50;;
49320;SDS011;35817;44.498;0.166;2022-12-05T02:51:23;31.27;;;24.10;;
49320;SDS011;35817;44.498;0.166;2022-12-05T02:53:53;31.27;;;21.20;;
49320;SDS011;35817;44.498;0.166;2022-12-05T02:58:51;27.45;;;20.50;;
49320;SDS011;35817;44.498;0.166;2022-12-05T03:01:19;29.08;;;22.38;;
49320;SDS011;35817;44.498;0.166;2022-12-05T03:03:47;28.77;;;21.48;;
49320;SDS011;35817;44.498;0.166;2022-12-05T03:06:18;25.02;;;21.10;;
49320;SDS011;35817;44.498;0.166;2022-12-05T03:11:25;27.35;;;20.75;;
49320;SDS011;35817;44.498;0.166;2022-12-05T03:13:57;25.77;;;21.73;;
49320;SDS011;35817;44.498;0.166;2022-12-05T03:16:28;29.00;;;21.30;;
49320;SDS011;35817;44.498;0.166;2022-12-05T03:19:04;28.05;;;22.08;;
49320;SDS011;35817;44.498;0.166;2022-12-05T03:21:36;31.73;;;22.60;;
49320;SDS011;35817;44.498;0.166;2022-12-05T03:38:02;27.60;;;20.48;;
49320;SDS011;35817;44.498;0.166;2022-12-05T03:51:08;28.38;;;20.52;;
49320;SDS011;35817;44.498;0.166;2022-12-05T03:53:45;29.95;;;22.63;;
49320;SDS011;35817;44.498;0.166;2022-12-05T03:56:26;27.95;;;19.58;;
49320;SDS011;35817;44.498;0.166;2022-12-05T03:59:07;34.45;;;22.60;;
49320;SDS011;35817;44.498;0.166;2022-12-05T04:01:43;28.05;;;20.83;;
49320;SDS011;35817;44.498;0.166;2022-12-05T04:04:15;28.48;;;20.20;;
49320;SDS011;35817;44.498;0.166;2022-12-05T04:06:45;26.60;;;20.80;;
49320;SDS011;35817;44.498;0.166;2022-12-05T04:09:18;27.85;;;21.30;;
49320;SDS011;35817;44.498;0.166;2022-12-05T04:11:52;24.75;;;20.95;;
49320;SDS011;35817;44.498;0.166;2022-12-05T04:14:25;28.95;;;19.55;;
49320;SDS011;35817;44.498;0.166;2022-12-05T04:17:00;26.70;;;20.35;;
49320;SDS011;35817;44.498;0.166;2022-12-05T04:22:39;31.02;;;20.08;;
49320;SDS011;35817;44.498;0.166;2022-12-05T04:25:07;31.58;;;19.23;;
49320;SDS011;35817;44.498;0.166;2022-12-05T04:31:02;32.58;;;20.65;;
49320;SDS011;35817;44.498;0.166;2022-12-05T04:36:00;29.98;;;18.30;;
49320;SDS011;35817;44.498;0.166;2022-12-05T04:41:23;23.20;;;17.83;;
49320;SDS011;35817;44.498;0.166;2022-12-05T04:43:53;24.83;;;18.20;;
49320;SDS011;35817;44.498;0.166;2022-12-05T04:48:50;19.75;;;15.88;;
49320;SDS011;35817;44.498;0.166;2022-12-05T04:51:21;21.60;;;17.80;;
49320;SDS011;35817;44.498;0.166;2022-12-05T04:53:54;23.63;;;16.65;;
49320;SDS011;35817;44.498;0.166;2022-12-05T04:56:25;23.73;;;16.35;;
49320;SDS011;35817;44.498;0.166;2022-12-05T04:58:54;19.50;;;15.55;;
49320;SDS011;35817;44.498;0.166;2022-12-05T05:01:29;20.65;;;14.70;;
49320;SDS011;35817;44.498;0.166;2022-12-05T05:04:10;18.52;;;15.55;;
49320;SDS011;35817;44.498;0.166;2022-12-05T05:06:41;21.15;;;15.95;;
49320;SDS011;35817;44.498;0.166;2022-12-05T05:09:07;19.42;;;15.52;;
49320;SDS011;35817;44.498;0.166;2022-12-05T05:11:34;19.15;;;16.30;;
49320;SDS011;35817;44.498;0.166;2022-12-05T05:14:01;17.95;;;14.93;;
49320;SDS011;35817;44.498;0.166;2022-12-05T05:16:31;21.40;;;16.08;;
49320;SDS011;35817;44.498;0.166;2022-12-05T05:19:02;19.88;;;15.40;;
49320;SDS011;35817;44.498;0.166;2022-12-05T05:24:02;19.38;;;15.20;;
49320;SDS011;35817;44.498;0.166;2022-12-05T05:26:28;19.58;;;15.70;;
49320;SDS011;35817;44.498;0.166;2022-12-05T05:28:56;19.75;;;15.07;;
49320;SDS011;35817;44.498;0.166;2022-12-05T05:31:22;17.67;;;15.40;;
49320;SDS011;35817;44.498;0.166;2022-12-05T05:33:52;18.80;;;14.10;;
49320;SDS011;35817;44.498;0.166;2022-12-05T05:36:20;19.55;;;14.88;;
49320;SDS011;35817;44.498;0.166;2022-12-05T05:38:48;19.95;;;14.68;;
49320;SDS011;35817;44.498;0.166;2022-12-05T05:41:17;22.02;;;16.60;;
49320;SDS011;35817;44.498;0.166;2022-12-05T05:43:46;23.65;;;16.58;;
49320;SDS011;35817;44.498;0.166;2022-12-05T05:46:13;19.60;;;16.10;;
49320;SDS011;35817;44.498;0.166;2022-12-05T05:48:40;21.98;;;15.32;;
49320;SDS011;35817;44.498;0.166;2022-12-05T05:51:07;21.90;;;16.77;;
49320;SDS011;35817;44.498;0.166;2022-12-05T05:53:34;21.35;;;16.02;;
49320;SDS011;35817;44.498;0.166;2022-12-05T05:56:01;20.98;;;14.73;;
49320;SDS011;35817;44.498;0.166;2022-12-05T05:58:31;18.65;;;15.20;;
49320;SDS011;35817;44.498;0.166;2022-12-05T06:01:08;21.67;;;15.88;;
49320;SDS011;35817;44.498;0.166;2022-12-05T06:03:35;19.88;;;15.80;;
49320;SDS011;35817;44.498;0.166;2022-12-05T06:06:03;21.83;;;16.50;;
49320;SDS011;35817;44.498;0.166;2022-12-05T06:08:30;23.60;;;17.45;;
49320;SDS011;35817;44.498;0.166;2022-12-05T06:10:58;23.20;;;15.57;;
49320;SDS011;35817;44.498;0.166;2022-12-05T06:13:24;23.77;;;16.92;;
49320;SDS011;35817;44.498;0.166;2022-12-05T06:15:50;23.23;;;17.02;;
49320;SDS011;35817;44.498;0.166;2022-12-05T06:18:16;21.60;;;16.98;;
49320;SDS011;35817;44.498;0.166;2022-12-05T06:20:49;27.58;;;19.13;;
49320;SDS011;35817;44.498;0.166;2022-12-05T06:23:16;28.00;;;19.73;;
49320;SDS011;35817;44.498;0.166;2022-12-05T06:25:46;30.52;;;19.42;;
49320;SDS011;35817;44.498;0.166;2022-12-05T06:28:15;32.28;;;20.50;;
49320;SDS011;35817;44.498;0.166;2022-12-05T06:30:42;25.17;;;18.60;;
49320;SDS011;35817;44.498;0.166;2022-12-05T06:33:07;28.38;;;19.70;;
49320;SDS011;35817;44.498;0.166;2022-12-05T06:35:33;27.92;;;20.55;;
49320;SDS011;35817;44.498;0.166;2022-12-05T06:37:59;36.35;;;20.77;;
49320;SDS011;35817;44.498;0.166;2022-12-05T06:40:25;28.73;;;21.15;;
49320;SDS011;35817;44.498;0.166;2022-12-05T06:42:51;29.60;;;20.15;;
49320;SDS011;35817;44.498;0.166;2022-12-05T06:45:16;34.17;;;20.60;;
49320;SDS011;35817;44.498;0.166;2022-12-05T06:47:42;29.42;;;19.70;;
49320;SDS011;35817;44.498;0.166;2022-12-05T06:50:09;31.58;;;21.88;;
49320;SDS011;35817;44.498;0.166;2022-12-05T06:52:35;29.35;;;19.88;;
49320;SDS011;35817;44.498;0.166;2022-12-05T06:55:00;32.85;;;23.70;;
49320;SDS011;35817;44.498;0.166;2022-12-05T06:57:27;34.38;;;21.63;;
49320;SDS011;35817;44.498;0.166;2022-12-05T06:59:53;35.45;;;23.67;;
49320;SDS011;35817;44.498;0.166;2022-12-05T07:02:38;37.25;;;23.73;;
49320;SDS011;35817;44.498;0.166;2022-12-05T07:05:06;35.88;;;21.50;;
49320;SDS011;35817;44.498;0.166;2022-12-05T07:07:32;37.97;;;21.23;;
49320;SDS011;35817;44.498;0.166;2022-12-05T07:09:58;34.65;;;22.00;;
49320;SDS011;35817;44.498;0.166;2022-12-05T07:12:24;31.65;;;20.60;;
49320;SDS011;35817;44.498;0.166;2022-12-05T07:14:50;33.58;;;20.35;;
49320;SDS011;35817;44.498;0.166;2022-12-05T07:17:16;30.67;;;20.42;;
49320;SDS011;35817;44.498;0.166;2022-12-05T07:19:43;37.70;;;22.95;;
49320;SDS011;35817;44.498;0.166;2022-12-05T07:22:10;37.70;;;21.40;;
49320;SDS011;35817;44.498;0.166;2022-12-05T07:24:36;34.85;;;24.40;;
49320;SDS011;35817;44.498;0.166;2022-12-05T07:27:02;36.22;;;22.90;;
49320;SDS011;35817;44.498;0.166;2022-12-05T07:29:28;35.35;;;22.45;;
49320;SDS011;35817;44.498;0.166;2022-12-05T07:31:53;33.90;;;24.02;;
49320;SDS011;35817;44.498;0.166;2022-12-05T07:34:19;40.08;;;25.70;;
49320;SDS011;35817;44.498;0.166;2022-12-05T07:36:45;36.05;;;22.48;;
49320;SDS011;35817;44.498;0.166;2022-12-05T07:39:11;39.75;;;28.27;;
49320;SDS011;35817;44.498;0.166;2022-12-05T07:41:37;38.38;;;24.58;;
49320;SDS011;35817;44.498;0.166;2022-12-05T07:44:02;48.28;;;28.27;;
49320;SDS011;35817;44.498;0.166;2022-12-05T07:46:28;47.03;;;29.88;;
49320;SDS011;35817;44.498;0.166;2022-12-05T07:48:55;45.88;;;27.67;;
49320;SDS011;35817;44.498;0.166;2022-12-05T07:51:21;33.97;;;23.35;;
49320;SDS011;35817;44.498;0.166;2022-12-05T07:53:47;39.80;;;26.55;;
49320;SDS011;35817;44.498;0.166;2022-12-05T07:56:14;35.92;;;22.85;;
49320;SDS011;35817;44.498;0.166;2022-12-05T07:58:44;33.35;;;24.05;;
49320;SDS011;35817;44.498;0.166;2022-12-05T08:01:14;33.40;;;23.45;;
49320;SDS011;35817;44.498;0.166;2022-12-05T08:03:42;37.58;;;22.90;;
49320;SDS011;35817;44.498;0.166;2022-12-05T08:06:09;33.70;;;20.58;;
49320;SDS011;35817;44.498;0.166;2022-12-05T08:08:37;37.28;;;23.58;;
49320;SDS011;35817;44.498;0.166;2022-12-05T08:11:07;33.22;;;20.35;;
49320;SDS011;35817;44.498;0.166;2022-12-05T08:13:36;28.95;;;20.55;;
49320;SDS011;35817;44.498;0.166;2022-12-05T08:16:03;31.52;;;19.33;;
49320;SDS011;35817;44.498;0.166;2022-12-05T08:18:30;36.63;;;22.23;;
49320;SDS011;35817;44.498;0.166;2022-12-05T08:21:03;32.60;;;21.70;;
49320;SDS011;35817;44.498;0.166;2022-12-05T08:23:31;30.25;;;19.38;;
49320;SDS011;35817;44.498;0.166;2022-12-05T08:26:01;30.50;;;20.10;;
49320;SDS011;35817;44.498;0.166;2022-12-05T08:28:29;42.22;;;22.67;;
49320;SDS011;35817;44.498;0.166;2022-12-05T08:30:55;36.67;;;23.63;;
49320;SDS011;35817;44.498;0.166;2022-12-05T08:33:20;29.55;;;20.17;;
49320;SDS011;35817;44.498;0.166;2022-12-05T08:35:46;35.00;;;21.63;;
49320;SDS011;35817;44.498;0.166;2022-12-05T08:38:12;36.70;;;22.35;;
49320;SDS011;35817;44.498;0.166;2022-12-05T08:43:13;35.97;;;23.02;;
49320;SDS011;35817;44.498;0.166;2022-12-05T08:45:48;32.75;;;23.40;;
49320;SDS011;35817;44.498;0.166;2022-12-05T08:48:21;34.05;;;23.13;;
49320;SDS011;35817;44.498;0.166;2022-12-05T08:50:52;38.03;;;23.80;;
49320;SDS011;35817;44.498;0.166;2022-12-05T08:53:18;37.53;;;23.52;;
49320;SDS011;35817;44.498;0.166;2022-12-05T08:55:49;37.88;;;21.70;;
49320;SDS011;35817;44.498;0.166;2022-12-05T08:58:18;32.70;;;24.52;;
49320;SDS011;35817;44.498;0.166;2022-12-05T09:00:45;32.17;;;22.23;;
49320;SDS011;35817;44.498;0.166;2022-12-05T09:03:11;25.48;;;17.85;;
49320;SDS011;35817;44.498;0.166;2022-12-05T09:06:20;26.13;;;17.67;;
49320;SDS011;35817;44.498;0.166;2022-12-05T09:08:33;28.48;;;19.80;;
49320;SDS011;35817;44.498;0.166;2022-12-05T09:11:16;13.65;;;9.27;;
49320;SDS011;35817;44.498;0.166;2022-12-05T09:13:51;19.38;;;11.73;;
49320;SDS011;35817;44.498;0.166;2022-12-05T09:16:39;25.70;;;13.85;;
49320;SDS011;35817;44.498;0.166;2022-12-05T09:19:20;14.75;;;9.85;;
49320;SDS011;35817;44.498;0.166;2022-12-05T09:24:39;20.92;;;11.63;;
49320;SDS011;35817;44.498;0.166;2022-12-05T09:27:20;13.70;;;9.07;;
49320;SDS011;35817;44.498;0.166;2022-12-05T09:29:51;17.70;;;11.68;;
49320;SDS011;35817;44.498;0.166;2022-12-05T09:32:34;16.05;;;9.57;;
49320;SDS011;35817;44.498;0.166;2022-12-05T09:35:38;18.52;;;10.45;;
49320;SDS011;35817;44.498;0.166;2022-12-05T09:38:04;15.23;;;8.93;;
49320;SDS011;35817;44.498;0.166;2022-12-05T09:40:37;12.45;;;9.00;;
49320;SDS011;35817;44.498;0.166;2022-12-05T09:43:12;15.90;;;10.55;;
49320;SDS011;35817;44.498;0.166;2022-12-05T09:45:58;17.73;;;10.27;;
49320;SDS011;35817;44.498;0.166;2022-12-05T09:48:34;16.30;;;10.03;;
49320;SDS011;35817;44.498;0.166;2022-12-05T09:51:06;12.73;;;9.32;;
49320;SDS011;35817;44.498;0.166;2022-12-05T09:53:35;12.15;;;6.28;;
49320;SDS011;35817;44.498;0.166;2022-12-05T09:58:53;10.68;;;7.40;;
49320;SDS011;35817;44.498;0.166;2022-12-05T10:04:14;16.58;;;8.40;;
49320;SDS011;35817;44.498;0.166;2022-12-05T10:09:54;13.68;;;9.68;;
49320;SDS011;35817;44.498;0.166;2022-12-05T10:15:13;13.43;;;8.13;;
49320;SDS011;35817;44.498;0.166;2022-12-05T10:20:43;7.53;;;6.05;;
49320;SDS011;35817;44.498;0.166;2022-12-05T10:23:17;10.02;;;7.63;;
49320;SDS011;35817;44.498;0.166;2022-12-05T10:25:56;9.50;;;6.65;;
49320;SDS011;35817;44.498;0.166;2022-12-05T10:28:27;10.45;;;7.57;;
49320;SDS011;35817;44.498;0.166;2022-12-05T10:30:59;8.73;;;6.95;;
49320;SDS011;35817;44.498;0.166;2022-12-05T10:33:36;9.68;;;7.25;;
49320;SDS011;35817;44.498;0.166;2022-12-05T10:36:29;8.73;;;7.82;;
49320;SDS011;35817;44.498;0.166;2022-12-05T10:39:03;8.48;;;6.25;;
49320;SDS011;35817;44.498;0.166;2022-12-05T10:41:29;13.95;;;8.18;;
49320;SDS011;35817;44.498;0.166;2022-12-05T10:43:58;23.58;;;11.15;;
49320;SDS011;35817;44.498;0.166;2022-12-05T10:46:28;12.70;;;9.10;;
49320;SDS011;35817;44.498;0.166;2022-12-05T10:48:55;12.25;;;8.30;;
49320;SDS011;35817;44.498;0.166;2022-12-05T10:51:26;13.02;;;8.20;;
49320;SDS011;35817;44.498;0.166;2022-12-05T10:53:53;12.63;;;6.88;;
49320;SDS011;35817;44.498;0.166;2022-12-05T10:56:43;7.18;;;5.10;;
49320;SDS011;35817;44.498;0.166;2022-12-05T11:01:50;6.65;;;4.45;;
49320;SDS011;35817;44.498;0.166;2022-12-05T11:44:38;4.38;;;3.45;;
49320;SDS011;35817;44.498;0.166;2022-12-05T11:53:05;3.38;;;2.85;;
49320;SDS011;35817;44.498;0.166;2022-12-05T11:55:56;4.40;;;3.17;;
49320;SDS011;35817;44.498;0.166;2022-12-05T11:58:47;4.07;;;3.05;;
49320;SDS011;35817;44.498;0.166;2022-12-05T12:01:30;3.88;;;2.83;;
49320;SDS011;35817;44.498;0.166;2022-12-05T12:12:42;3.85;;;2.88;;
49320;SDS011;35817;44.498;0.166;2022-12-05T12:21:02;5.30;;;3.00;;
49320;SDS011;35817;44.498;0.166;2022-12-05T12:31:37;3.80;;;3.03;;
49320;SDS011;35817;44.498;0.166;2022-12-05T12:40:22;4.35;;;3.30;;
49320;SDS011;35817;44.498;0.166;2022-12-05T12:51:11;2.67;;;2.38;;
49320;SDS011;35817;44.498;0.166;2022-12-05T14:07:44;2.80;;;2.30;;
49320;SDS011;35817;44.498;0.166;2022-12-05T14:18:47;3.03;;;2.05;;
49320;SDS011;35817;44.498;0.166;2022-12-05T14:29:20;6.32;;;1.73;;
49320;SDS011;35817;44.498;0.166;2022-12-05T14:31:59;3.03;;;1.50;;
49320;SDS011;35817;44.498;0.166;2022-12-05T14:34:35;11.63;;;2.08;;
49320;SDS011;35817;44.498;0.166;2022-12-05T14:45:20;3.95;;;1.83;;
49320;SDS011;35817;44.498;0.166;2022-12-05T14:47:53;2.53;;;1.10;;
49320;SDS011;35817;44.498;0.166;2022-12-05T14:58:24;3.03;;;1.30;;
49320;SDS011;35817;44.498;0.166;2022-12-05T15:00:59;2.40;;;1.23;;
49320;SDS011;35817;44.498;0.166;2022-12-05T15:03:39;2.50;;;1.10;;
49320;SDS011;35817;44.498;0.166;2022-12-05T15:06:13;2.60;;;1.55;;
49320;SDS011;35817;44.498;0.166;2022-12-05T15:08:47;3.30;;;1.17;;
49320;SDS011;35817;44.498;0.166;2022-12-05T15:11:16;2.30;;;1.15;;
49320;SDS011;35817;44.498;0.166;2022-12-05T15:13:59;3.25;;;2.10;;
49320;SDS011;35817;44.498;0.166;2022-12-05T15:16:33;5.10;;;1.55;;
49320;SDS011;35817;44.498;0.166;2022-12-05T15:19:05;2.20;;;1.50;;
49320;SDS011;35817;44.498;0.166;2022-12-05T15:21:40;3.78;;;1.33;;
49320;SDS011;35817;44.498;0.166;2022-12-05T15:24:11;2.35;;;1.33;;
49320;SDS011;35817;44.498;0.166;2022-12-05T15:26:39;3.70;;;1.05;;
49320;SDS011;35817;44.498;0.166;2022-12-05T15:31:49;5.70;;;2.72;;
49320;SDS011;35817;44.498;0.166;2022-12-05T15:36:44;10.70;;;5.32;;
49320;SDS011;35817;44.498;0.166;2022-12-05T15:39:20;10.35;;;6.22;;
49320;SDS011;35817;44.498;0.166;2022-12-05T15:41:53;11.55;;;5.38;;
49320;SDS011;35817;44.498;0.166;2022-12-05T15:44:21;8.23;;;5.80;;
49320;SDS011;35817;44.498;0.166;2022-12-05T15:46:52;10.38;;;5.32;;
49320;SDS011;35817;44.498;0.166;2022-12-05T15:49:23;6.82;;;4.50;;
49320;SDS011;35817;44.498;0.166;2022-12-05T15:51:59;7.70;;;4.20;;
49320;SDS011;35817;44.498;0.166;2022-12-05T15:54:42;5.05;;;3.45;;
49320;SDS011;35817;44.498;0.166;2022-12-05T15:57:12;7.88;;;4.78;;
49320;SDS011;35817;44.498;0.166;2022-12-05T15:59:46;10.70;;;5.15;;
49320;SDS011;35817;44.498;0.166;2022-12-05T16:02:22;8.85;;;4.38;;
49320;SDS011;35817;44.498;0.166;2022-12-05T16:04:56;3.92;;;3.17;;
49320;SDS011;35817;44.498;0.166;2022-12-05T16:07:25;5.03;;;3.08;;
49320;SDS011;35817;44.498;0.166;2022-12-05T16:09:55;4.20;;;3.47;;
49320;SDS011;35817;44.498;0.166;2022-12-05T16:14:52;3.53;;;2.42;;
49320;SDS011;35817;44.498;0.166;2022-12-05T16:17:20;6.07;;;3.22;;
49320;SDS011;35817;44.498;0.166;2022-12-05T16:19:46;10.30;;;4.22;;
49320;SDS011;35817;44.498;0.166;2022-12-05T16:24:45;12.02;;;6.70;;
49320;SDS011;35817;44.498;0.166;2022-12-05T16:27:22;9.10;;;5.72;;
49320;SDS011;35817;44.498;0.166;2022-12-05T16:30:05;10.07;;;7.18;;
49320;SDS011;35817;44.498;0.166;2022-12-05T16:32:35;7.85;;;3.97;;
49320;SDS011;35817;44.498;0.166;2022-12-05T16:35:01;9.80;;;4.78;;
49320;SDS011;35817;44.498;0.166;2022-12-05T16:37:28;9.27;;;4.38;;
49320;SDS011;35817;44.498;0.166;2022-12-05T16:39:55;7.85;;;4.28;;
49320;SDS011;35817;44.498;0.166;2022-12-05T16:42:22;7.75;;;3.78;;
49320;SDS011;35817;44.498;0.166;2022-12-05T16:45:00;10.60;;;5.00;;
49320;SDS011;35817;44.498;0.166;2022-12-05T16:50:35;10.55;;;4.10;;
49320;SDS011;35817;44.498;0.166;2022-12-05T16:53:09;10.45;;;5.63;;
49320;SDS011;35817;44.498;0.166;2022-12-05T16:55:42;9.82;;;5.47;;
49320;SDS011;35817;44.498;0.166;2022-12-05T16:58:22;11.25;;;5.07;;
49320;SDS011;35817;44.498;0.166;2022-12-05T17:00:49;8.02;;;4.82;;
49320;SDS011;35817;44.498;0.166;2022-12-05T17:03:16;9.05;;;4.13;;
49320;SDS011;35817;44.498;0.166;2022-12-05T17:05:42;10.25;;;6.10;;
49320;SDS011;35817;44.498;0.166;2022-12-05T22:32:21;6.90;;;4.65;;
49320;SDS011;35817;44.498;0.166;2022-12-05T22:34:47;6.30;;;2.67;;
49320;SDS011;35817;44.498;0.166;2022-12-05T22:37:13;6.47;;;3.60;;
49320;SDS011;35817;44.498;0.166;2022-12-05T22:39:38;6.38;;;3.97;;
49320;SDS011;35817;44.498;0.166;2022-12-05T22:42:04;8.77;;;3.08;;
49320;SDS011;35817;44.498;0.166;2022-12-05T22:44:30;5.18;;;3.65;;
49320;SDS011;35817;44.498;0.166;2022-12-05T22:46:56;7.30;;;3.70;;
49320;SDS011;35817;44.498;0.166;2022-12-05T22:49:21;6.40;;;4.18;;
49320;SDS011;35817;44.498;0.166;2022-12-05T22:51:47;9.85;;;4.25;;
49320;SDS011;35817;44.498;0.166;2022-12-05T22:54:13;6.93;;;3.58;;
49320;SDS011;35817;44.498;0.166;2022-12-05T22:56:38;6.60;;;3.47;;
49320;SDS011;35817;44.498;0.166;2022-12-05T22:59:09;6.38;;;4.03;;
49320;SDS011;35817;44.498;0.166;2022-12-05T23:01:35;9.27;;;3.85;;
49320;SDS011;35817;44.498;0.166;2022-12-05T23:04:02;5.13;;;3.70;;
49320;SDS011;35817;44.498;0.166;2022-12-05T23:06:30;4.82;;;2.92;;
49320;SDS011;35817;44.498;0.166;2022-12-05T23:08:58;5.63;;;3.67;;
49320;SDS011;35817;44.498;0.166;2022-12-05T23:11:25;7.28;;;3.08;;
49320;SDS011;35817;44.498;0.166;2022-12-05T23:13:51;4.70;;;2.72;;
49320;SDS011;35817;44.498;0.166;2022-12-05T23:16:22;7.78;;;3.05;;
49320;SDS011;35817;44.498;0.166;2022-12-05T23:18:51;6.82;;;3.25;;
49320;SDS011;35817;44.498;0.166;2022-12-05T23:23:49;5.22;;;2.30;;
49320;SDS011;35817;44.498;0.166;2022-12-05T23:26:16;5.25;;;3.33;;
49320;SDS011;35817;44.498;0.166;2022-12-05T23:28:43;3.50;;;2.50;;
49320;SDS011;35817;44.498;0.166;2022-12-05T23:31:10;7.15;;;3.40;;
49320;SDS011;35817;44.498;0.166;2022-12-05T23:33:37;6.82;;;2.88;;
49320;SDS011;35817;44.498;0.166;2022-12-05T23:36:03;6.00;;;2.80;;
49320;SDS011;35817;44.498;0.166;2022-12-05T23:38:30;5.63;;;2.95;;
49320;SDS011;35817;44.498;0.166;2022-12-05T23:41:03;4.30;;;2.33;;
49320;SDS011;35817;44.498;0.166;2022-12-05T23:43:30;6.43;;;3.65;;
49320;SDS011;35817;44.498;0.166;2022-12-05T23:45:57;4.85;;;2.72;;
49320;SDS011;35817;44.498;0.166;2022-12-05T23:48:23;3.92;;;2.35;;
49320;SDS011;35817;44.498;0.166;2022-12-05T23:53:31;6.82;;;2.97;;
49320;SDS011;35817;44.498;0.166;2022-12-05T23:56:06;4.75;;;3.30;;
49320;SDS011;35817;44.498;0.166;2022-12-05T23:58:37;5.35;;;2.78;;
